Terminal Aerodrome Forecast
Issued by NWS Portland, OR

Home | Current Version | Previous Version | Text Only | Print | Product List | Glossary On
Versions: 1 2 3 4 5 6 7 8 9 10 11 12 13 14 15 16 17 18 19 20 21 22 23 24 25 26 27 28 29 30 31 32 33 34 35 36 37 38 39 40 41
000
FTUS46 KPQR 281409 AAA
TAFAST
TAF AMD
KAST 281409Z 2814/2912 20013G18KT P6SM -SHRA BKN008 OVC035
     FM281700 22013G23KT 4SM RA BR BKN010 OVC018
     FM282200 30012G20KT 5SM -SHRA SCT008 BKN018 OVC030
     FM290200 30012KT P6SM -SHRA SCT012 BKN025 OVC035=

USA.gov is the U.S. government's official web portal to all federal, state and local government web resources and services.